sensor_id;sensor_type;location;lat;lon;timestamp;pressure;altitude;pressure_sealevel;temperature;humidity
17072;BME280;7731;50.720;6.912;2024-01-16T00:02:11;99391.28;;;-0.14;100.00
17072;BME280;7731;50.720;6.912;2024-01-16T00:04:43;99391.91;;;-0.01;100.00
17072;BME280;7731;50.720;6.912;2024-01-16T00:07:16;99384.13;;;0.10;100.00
17072;BME280;7731;50.720;6.912;2024-01-16T00:09:47;99391.03;;;0.02;100.00
17072;BME280;7731;50.720;6.912;2024-01-16T00:12:20;99389.28;;;0.04;100.00
17072;BME280;7731;50.720;6.912;2024-01-16T00:14:51;99387.56;;;0.06;100.00
17072;BME280;7731;50.720;6.912;2024-01-16T00:17:21;99398.66;;;-0.03;100.00
17072;BME280;7731;50.720;6.912;2024-01-16T00:19:53;99390.91;;;0.08;100.00
17072;BME280;7731;50.720;6.912;2024-01-16T00:22:30;99387.66;;;0.01;100.00
17072;BME280;7731;50.720;6.912;2024-01-16T00:25:00;99397.81;;;-0.04;100.00
17072;BME280;7731;50.720;6.912;2024-01-16T00:27:33;99400.28;;;0.01;100.00
17072;BME280;7731;50.720;6.912;2024-01-16T00:30:06;99394.53;;;-0.07;100.00
17072;BME280;7731;50.720;6.912;2024-01-16T00:32:36;99395.69;;;0.22;100.00
17072;BME280;7731;50.720;6.912;2024-01-16T00:35:12;99401.66;;;0.17;100.00
17072;BME280;7731;50.720;6.912;2024-01-16T00:37:45;99398.78;;;0.36;100.00
17072;BME280;7731;50.720;6.912;2024-01-16T00:40:30;99408.09;;;0.34;100.00
17072;BME280;7731;50.720;6.912;2024-01-16T00:43:01;99412.75;;;0.09;100.00
17072;BME280;7731;50.720;6.912;2024-01-16T00:45:34;99413.34;;;0.23;100.00
17072;BME280;7731;50.720;6.912;2024-01-16T00:48:05;99414.00;;;0.33;100.00
17072;BME280;7731;50.720;6.912;2024-01-16T00:50:38;99421.03;;;0.17;100.00
17072;BME280;7731;50.720;6.912;2024-01-16T00:53:14;99417.91;;;0.04;100.00
17072;BME280;7731;50.720;6.912;2024-01-16T00:55:46;99420.25;;;0.13;100.00
17072;BME280;7731;50.720;6.912;2024-01-16T00:58:17;99422.88;;;0.07;100.00
17072;BME280;7731;50.720;6.912;2024-01-16T01:00:50;99426.06;;;0.19;100.00
17072;BME280;7731;50.720;6.912;2024-01-16T01:03:20;99429.50;;;0.14;100.00
17072;BME280;7731;50.720;6.912;2024-01-16T01:05:51;99431.25;;;0.11;100.00
17072;BME280;7731;50.720;6.912;2024-01-16T01:08:29;99432.59;;;0.29;100.00
17072;BME280;7731;50.720;6.912;2024-01-16T01:10:59;99438.53;;;0.28;100.00
17072;BME280;7731;50.720;6.912;2024-01-16T01:13:32;99428.19;;;-0.07;100.00
17072;BME280;7731;50.720;6.912;2024-01-16T01:16:05;99425.53;;;0.01;100.00
17072;BME280;7731;50.720;6.912;2024-01-16T01:18:45;99432.41;;;-0.07;100.00
17072;BME280;7731;50.720;6.912;2024-01-16T01:21:19;99428.19;;;-0.07;100.00
17072;BME280;7731;50.720;6.912;2024-01-16T01:24:00;99437.53;;;0.35;100.00
17072;BME280;7731;50.720;6.912;2024-01-16T01:26:42;99431.94;;;0.19;100.00
17072;BME280;7731;50.720;6.912;2024-01-16T01:29:15;99435.59;;;0.03;100.00
17072;BME280;7731;50.720;6.912;2024-01-16T01:31:49;99436.41;;;0.05;100.00
17072;BME280;7731;50.720;6.912;2024-01-16T01:34:19;99433.38;;;-0.16;100.00
17072;BME280;7731;50.720;6.912;2024-01-16T01:36:52;99434.38;;;-0.25;100.00
17072;BME280;7731;50.720;6.912;2024-01-16T01:39:27;99444.38;;;-0.20;100.00
17072;BME280;7731;50.720;6.912;2024-01-16T01:41:57;99434.53;;;-0.34;100.00
17072;BME280;7731;50.720;6.912;2024-01-16T01:44:28;99439.03;;;0.00;100.00
17072;BME280;7731;50.720;6.912;2024-01-16T01:46:58;99440.69;;;0.01;100.00
17072;BME280;7731;50.720;6.912;2024-01-16T01:49:30;99442.34;;;0.02;100.00
17072;BME280;7731;50.720;6.912;2024-01-16T01:52:01;99447.41;;;0.02;100.00
17072;BME280;7731;50.720;6.912;2024-01-16T01:54:43;99458.38;;;-0.01;100.00
17072;BME280;7731;50.720;6.912;2024-01-16T01:57:17;99459.06;;;0.09;100.00
17072;BME280;7731;50.720;6.912;2024-01-16T01:59:54;99457.66;;;-0.07;100.00
17072;BME280;7731;50.720;6.912;2024-01-16T02:02:25;99457.13;;;-0.26;100.00
17072;BME280;7731;50.720;6.912;2024-01-16T02:04:56;99457.88;;;-0.20;100.00
17072;BME280;7731;50.720;6.912;2024-01-16T02:07:28;99461.53;;;-0.39;100.00
17072;BME280;7731;50.720;6.912;2024-01-16T02:10:01;99470.00;;;-0.43;100.00
17072;BME280;7731;50.720;6.912;2024-01-16T02:12:34;99463.88;;;-0.27;100.00
17072;BME280;7731;50.720;6.912;2024-01-16T02:15:06;99468.38;;;0.06;100.00
17072;BME280;7731;50.720;6.912;2024-01-16T02:17:37;99473.16;;;-0.29;100.00
17072;BME280;7731;50.720;6.912;2024-01-16T02:20:09;99463.13;;;-0.32;100.00
17072;BME280;7731;50.720;6.912;2024-01-16T02:22:47;99463.06;;;-0.29;100.00
17072;BME280;7731;50.720;6.912;2024-01-16T02:25:27;99461.50;;;-0.38;100.00
17072;BME280;7731;50.720;6.912;2024-01-16T02:28:01;99462.25;;;-0.32;100.00
17072;BME280;7731;50.720;6.912;2024-01-16T02:30:31;99464.84;;;-0.37;100.00
17072;BME280;7731;50.720;6.912;2024-01-16T02:33:04;99473.00;;;-0.20;100.00
17072;BME280;7731;50.720;6.912;2024-01-16T02:35:38;99468.75;;;-0.17;100.00
17072;BME280;7731;50.720;6.912;2024-01-16T02:38:09;99462.91;;;-0.20;100.00
17072;BME280;7731;50.720;6.912;2024-01-16T02:40:42;99456.47;;;-0.39;100.00
17072;BME280;7731;50.720;6.912;2024-01-16T02:43:15;99459.53;;;-0.20;100.00
17072;BME280;7731;50.720;6.912;2024-01-16T02:45:48;99461.22;;;-0.19;100.00
17072;BME280;7731;50.720;6.912;2024-01-16T02:48:22;99451.69;;;-0.03;100.00
17072;BME280;7731;50.720;6.912;2024-01-16T02:50:54;99457.81;;;-0.16;100.00
17072;BME280;7731;50.720;6.912;2024-01-16T02:53:24;99451.75;;;-0.08;100.00
17072;BME280;7731;50.720;6.912;2024-01-16T02:56:01;99458.41;;;-0.02;100.00
17072;BME280;7731;50.720;6.912;2024-01-16T02:58:37;99458.09;;;0.15;100.00
17072;BME280;7731;50.720;6.912;2024-01-16T03:01:08;99456.81;;;-0.08;100.00
17072;BME280;7731;50.720;6.912;2024-01-16T03:03:43;99453.44;;;-0.07;100.00
17072;BME280;7731;50.720;6.912;2024-01-16T03:06:22;99465.16;;;-0.03;100.00
17072;BME280;7731;50.720;6.912;2024-01-16T03:08:56;99464.13;;;0.09;100.00
17072;BME280;7731;50.720;6.912;2024-01-16T03:11:38;99462.28;;;0.17;100.00
17072;BME280;7731;50.720;6.912;2024-01-16T03:14:09;99459.13;;;0.06;100.00
17072;BME280;7731;50.720;6.912;2024-01-16T03:16:42;99465.97;;;-0.02;100.00
17072;BME280;7731;50.720;6.912;2024-01-16T03:19:12;99460.44;;;0.26;100.00
17072;BME280;7731;50.720;6.912;2024-01-16T03:21:43;99462.06;;;0.30;100.00
17072;BME280;7731;50.720;6.912;2024-01-16T03:24:13;99464.28;;;-0.02;100.00
17072;BME280;7731;50.720;6.912;2024-01-16T03:26:46;99472.84;;;-0.10;100.00
17072;BME280;7731;50.720;6.912;2024-01-16T03:29:16;99467.75;;;-0.07;100.00
17072;BME280;7731;50.720;6.912;2024-01-16T03:31:47;99460.38;;;-0.20;100.00
17072;BME280;7731;50.720;6.912;2024-01-16T03:34:18;99463.00;;;0.24;100.00
17072;BME280;7731;50.720;6.912;2024-01-16T03:36:48;99463.09;;;0.65;100.00
17072;BME280;7731;50.720;6.912;2024-01-16T03:39:18;99454.88;;;0.53;100.00
17072;BME280;7731;50.720;6.912;2024-01-16T03:41:52;99463.44;;;0.46;100.00
17072;BME280;7731;50.720;6.912;2024-01-16T03:44:24;99461.59;;;0.55;100.00
17072;BME280;7731;50.720;6.912;2024-01-16T03:46:57;99463.69;;;0.34;100.00
17072;BME280;7731;50.720;6.912;2024-01-16T03:49:28;99463.44;;;-0.01;100.00
17072;BME280;7731;50.720;6.912;2024-01-16T03:51:58;99467.34;;;0.17;100.00
17072;BME280;7731;50.720;6.912;2024-01-16T03:54:32;99462.75;;;0.38;100.00
17072;BME280;7731;50.720;6.912;2024-01-16T03:57:05;99473.25;;;0.62;100.00
17072;BME280;7731;50.720;6.912;2024-01-16T03:59:37;99466.34;;;0.70;100.00
17072;BME280;7731;50.720;6.912;2024-01-16T04:02:07;99458.50;;;0.84;100.00
17072;BME280;7731;50.720;6.912;2024-01-16T04:04:38;99463.81;;;0.26;100.00
17072;BME280;7731;50.720;6.912;2024-01-16T04:07:11;99466.78;;;0.48;100.00
17072;BME280;7731;50.720;6.912;2024-01-16T04:09:42;99465.88;;;0.51;100.00
17072;BME280;7731;50.720;6.912;2024-01-16T04:12:15;99466.81;;;0.00;100.00
17072;BME280;7731;50.720;6.912;2024-01-16T04:14:45;99461.16;;;0.34;100.00
17072;BME280;7731;50.720;6.912;2024-01-16T04:17:16;99466.00;;;0.45;100.00
17072;BME280;7731;50.720;6.912;2024-01-16T04:19:46;99462.06;;;0.30;100.00
17072;BME280;7731;50.720;6.912;2024-01-16T04:22:16;99465.88;;;0.04;100.00
17072;BME280;7731;50.720;6.912;2024-01-16T04:24:47;99455.78;;;0.04;100.00
17072;BME280;7731;50.720;6.912;2024-01-16T04:27:22;99452.13;;;0.21;100.00
17072;BME280;7731;50.720;6.912;2024-01-16T04:29:54;99452.50;;;0.44;100.00
17072;BME280;7731;50.720;6.912;2024-01-16T04:32:27;99452.56;;;-0.04;100.00
17072;BME280;7731;50.720;6.912;2024-01-16T04:34:58;99449.09;;;0.47;100.00
17072;BME280;7731;50.720;6.912;2024-01-16T04:37:28;99455.72;;;0.54;100.00
17072;BME280;7731;50.720;6.912;2024-01-16T04:40:01;99456.06;;;0.35;100.00
17072;BME280;7731;50.720;6.912;2024-01-16T04:42:37;99455.28;;;0.32;100.00
17072;BME280;7731;50.720;6.912;2024-01-16T04:45:10;99455.22;;;0.35;100.00
17072;BME280;7731;50.720;6.912;2024-01-16T04:47:41;99462.50;;;0.05;100.00
17072;BME280;7731;50.720;6.912;2024-01-16T04:50:14;99456.41;;;0.17;100.00
17072;BME280;7731;50.720;6.912;2024-01-16T04:52:44;99454.19;;;0.00;100.00
17072;BME280;7731;50.720;6.912;2024-01-16T04:55:18;99453.09;;;0.13;100.00
17072;BME280;7731;50.720;6.912;2024-01-16T04:57:51;99449.16;;;-0.03;100.00
17072;BME280;7731;50.720;6.912;2024-01-16T05:00:22;99448.44;;;-0.10;100.00
17072;BME280;7731;50.720;6.912;2024-01-16T05:02:53;99446.03;;;-0.17;100.00
17072;BME280;7731;50.720;6.912;2024-01-16T05:05:27;99448.84;;;-0.34;100.00
17072;BME280;7731;50.720;6.912;2024-01-16T05:08:01;99445.63;;;0.07;100.00
17072;BME280;7731;50.720;6.912;2024-01-16T05:10:35;99445.66;;;0.04;100.00
17072;BME280;7731;50.720;6.912;2024-01-16T05:13:22;99435.72;;;-0.05;100.00
17072;BME280;7731;50.720;6.912;2024-01-16T05:15:55;99433.94;;;0.02;100.00
17072;BME280;7731;50.720;6.912;2024-01-16T05:18:25;99440.63;;;0.04;100.00
17072;BME280;7731;50.720;6.912;2024-01-16T05:20:56;99439.00;;;0.02;100.00
17072;BME280;7731;50.720;6.912;2024-01-16T05:23:32;99437.25;;;0.05;100.00
17072;BME280;7731;50.720;6.912;2024-01-16T05:26:02;99437.16;;;0.10;100.00
17072;BME280;7731;50.720;6.912;2024-01-16T05:28:35;99437.50;;;-0.10;100.00
17072;BME280;7731;50.720;6.912;2024-01-16T05:31:09;99431.31;;;0.08;100.00
17072;BME280;7731;50.720;6.912;2024-01-16T05:33:42;99432.13;;;0.08;100.00
17072;BME280;7731;50.720;6.912;2024-01-16T05:36:15;99432.03;;;0.14;100.00
17072;BME280;7731;50.720;6.912;2024-01-16T05:38:46;99424.69;;;0.02;100.00
17072;BME280;7731;50.720;6.912;2024-01-16T05:41:20;99433.59;;;0.22;100.00
17072;BME280;7731;50.720;6.912;2024-01-16T05:43:57;99424.38;;;0.19;100.00
17072;BME280;7731;50.720;6.912;2024-01-16T05:46:28;99422.31;;;0.80;100.00
17072;BME280;7731;50.720;6.912;2024-01-16T05:49:00;99418.59;;;0.97;100.00
17072;BME280;7731;50.720;6.912;2024-01-16T05:51:31;99420.59;;;0.82;100.00
17072;BME280;7731;50.720;6.912;2024-01-16T05:54:01;99425.28;;;0.60;100.00
17072;BME280;7731;50.720;6.912;2024-01-16T05:56:34;99421.94;;;0.57;100.00
17072;BME280;7731;50.720;6.912;2024-01-16T05:59:07;99411.94;;;0.93;100.00
17072;BME280;7731;50.720;6.912;2024-01-16T06:01:40;99414.84;;;0.32;100.00
17072;BME280;7731;50.720;6.912;2024-01-16T06:04:13;99425.19;;;0.20;100.00
17072;BME280;7731;50.720;6.912;2024-01-16T06:06:44;99414.03;;;0.31;100.00
17072;BME280;7731;50.720;6.912;2024-01-16T06:09:15;99415.44;;;0.46;100.00
17072;BME280;7731;50.720;6.912;2024-01-16T06:11:45;99418.38;;;0.25;100.00
17072;BME280;7731;50.720;6.912;2024-01-16T06:14:21;99410.63;;;0.34;100.00
17072;BME280;7731;50.720;6.912;2024-01-16T06:16:52;99413.88;;;0.39;100.00
17072;BME280;7731;50.720;6.912;2024-01-16T06:19:25;99410.03;;;0.20;100.00
17072;BME280;7731;50.720;6.912;2024-01-16T06:21:59;99416.03;;;0.15;100.00
17072;BME280;7731;50.720;6.912;2024-01-16T06:24:32;99415.13;;;0.16;100.00
17072;BME280;7731;50.720;6.912;2024-01-16T06:27:05;99409.44;;;0.07;100.00
17072;BME280;7731;50.720;6.912;2024-01-16T06:29:38;99408.97;;;0.31;100.00
17072;BME280;7731;50.720;6.912;2024-01-16T06:32:15;99417.09;;;0.02;100.00
17072;BME280;7731;50.720;6.912;2024-01-16T06:34:45;99429.94;;;0.35;100.00
17072;BME280;7731;50.720;6.912;2024-01-16T06:37:15;99426.91;;;0.17;100.00
17072;BME280;7731;50.720;6.912;2024-01-16T06:39:46;99422.19;;;-0.01;100.00
17072;BME280;7731;50.720;6.912;2024-01-16T06:42:22;99426.81;;;0.24;100.00
17072;BME280;7731;50.720;6.912;2024-01-16T06:44:55;99430.78;;;-0.11;100.00
17072;BME280;7731;50.720;6.912;2024-01-16T06:47:29;99429.84;;;-0.06;100.00
17072;BME280;7731;50.720;6.912;2024-01-16T06:50:00;99426.38;;;0.02;100.00
17072;BME280;7731;50.720;6.912;2024-01-16T06:52:42;99435.78;;;-0.08;100.00
17072;BME280;7731;50.720;6.912;2024-01-16T06:55:13;99430.84;;;-0.14;100.00
17072;BME280;7731;50.720;6.912;2024-01-16T06:57:43;99436.41;;;0.06;100.00
17072;BME280;7731;50.720;6.912;2024-01-16T07:00:19;99432.34;;;-0.04;100.00
17072;BME280;7731;50.720;6.912;2024-01-16T07:02:59;99437.94;;;0.13;100.00
17072;BME280;7731;50.720;6.912;2024-01-16T07:05:36;99442.91;;;0.18;100.00
17072;BME280;7731;50.720;6.912;2024-01-16T07:08:08;99445.56;;;0.10;100.00
17072;BME280;7731;50.720;6.912;2024-01-16T07:10:38;99442.53;;;0.38;100.00
17072;BME280;7731;50.720;6.912;2024-01-16T07:13:11;99439.03;;;0.00;100.00
17072;BME280;7731;50.720;6.912;2024-01-16T07:15:46;99448.31;;;-0.02;100.00
17072;BME280;7731;50.720;6.912;2024-01-16T07:18:16;99449.47;;;-0.22;100.00
17072;BME280;7731;50.720;6.912;2024-01-16T07:20:50;99448.75;;;-0.28;100.00
17072;BME280;7731;50.720;6.912;2024-01-16T07:23:23;99448.97;;;0.09;100.00
17072;BME280;7731;50.720;6.912;2024-01-16T07:25:56;99449.41;;;-0.19;100.00
17072;BME280;7731;50.720;6.912;2024-01-16T07:28:29;99458.13;;;-0.35;100.00
17072;BME280;7731;50.720;6.912;2024-01-16T07:31:10;99460.81;;;0.04;100.00
17072;BME280;7731;50.720;6.912;2024-01-16T07:33:43;99458.75;;;-0.22;100.00
17072;BME280;7731;50.720;6.912;2024-01-16T07:36:19;99466.00;;;-0.55;100.00
17072;BME280;7731;50.720;6.912;2024-01-16T07:38:49;99467.94;;;-0.76;100.00
17072;BME280;7731;50.720;6.912;2024-01-16T07:41:23;99471.72;;;-0.45;100.00
17072;BME280;7731;50.720;6.912;2024-01-16T07:43:53;99473.41;;;-0.46;100.00
17072;BME280;7731;50.720;6.912;2024-01-16T07:46:29;99471.09;;;-0.58;100.00
17072;BME280;7731;50.720;6.912;2024-01-16T07:49:02;99467.69;;;-0.57;100.00
17072;BME280;7731;50.720;6.912;2024-01-16T07:51:33;99476.84;;;-0.51;100.00
17072;BME280;7731;50.720;6.912;2024-01-16T07:54:08;99469.81;;;-0.31;100.00
17072;BME280;7731;50.720;6.912;2024-01-16T07:56:40;99476.31;;;-0.70;100.00
17072;BME280;7731;50.720;6.912;2024-01-16T07:59:14;99476.16;;;-0.60;100.00
17072;BME280;7731;50.720;6.912;2024-01-16T08:01:50;99478.34;;;-0.38;100.00
17072;BME280;7731;50.720;6.912;2024-01-16T08:04:20;99477.84;;;-0.62;100.00
17072;BME280;7731;50.720;6.912;2024-01-16T08:06:52;99471.78;;;-0.48;100.00
17072;BME280;7731;50.720;6.912;2024-01-16T08:09:32;99481.06;;;-0.50;100.00
17072;BME280;7731;50.720;6.912;2024-01-16T08:12:04;99480.84;;;-0.37;100.00
17072;BME280;7731;50.720;6.912;2024-01-16T08:14:34;99479.50;;;-0.06;100.00
17072;BME280;7731;50.720;6.912;2024-01-16T08:17:13;99492.63;;;-0.37;100.00
17072;BME280;7731;50.720;6.912;2024-01-16T08:19:46;99487.00;;;-0.55;100.00
17072;BME280;7731;50.720;6.912;2024-01-16T08:22:18;99484.28;;;-0.42;100.00
17072;BME280;7731;50.720;6.912;2024-01-16T08:24:48;99492.09;;;-0.58;100.00
17072;BME280;7731;50.720;6.912;2024-01-16T08:27:24;99484.75;;;-0.73;100.00
17072;BME280;7731;50.720;6.912;2024-01-16T08:29:59;99484.50;;;-0.56;100.00
17072;BME280;7731;50.720;6.912;2024-01-16T08:32:32;99485.09;;;-0.99;100.00
17072;BME280;7731;50.720;6.912;2024-01-16T08:35:03;99486.03;;;-0.46;100.00
17072;BME280;7731;50.720;6.912;2024-01-16T08:37:36;99484.16;;;-0.34;100.00
17072;BME280;7731;50.720;6.912;2024-01-16T08:40:08;99485.00;;;-0.34;100.00
17072;BME280;7731;50.720;6.912;2024-01-16T08:42:41;99484.44;;;0.03;100.00
17072;BME280;7731;50.720;6.912;2024-01-16T08:45:11;99492.81;;;0.05;100.00
17072;BME280;7731;50.720;6.912;2024-01-16T08:47:44;99494.91;;;-0.22;100.00
17072;BME280;7731;50.720;6.912;2024-01-16T08:50:15;99501.72;;;-0.27;100.00
17072;BME280;7731;50.720;6.912;2024-01-16T08:52:46;99509.84;;;-0.09;100.00
17072;BME280;7731;50.720;6.912;2024-01-16T08:55:16;99504.22;;;-0.25;100.00
17072;BME280;7731;50.720;6.912;2024-01-16T08:57:49;99506.63;;;-0.17;100.00
17072;BME280;7731;50.720;6.912;2024-01-16T09:00:20;99504.66;;;1.34;100.00
17072;BME280;7731;50.720;6.912;2024-01-16T09:02:53;99492.75;;;0.99;98.44
17072;BME280;7731;50.720;6.912;2024-01-16T09:05:27;99496.00;;;1.04;97.22
17072;BME280;7731;50.720;6.912;2024-01-16T09:08:03;99497.44;;;0.74;97.00
17072;BME280;7731;50.720;6.912;2024-01-16T09:10:38;99488.56;;;1.37;100.00
17072;BME280;7731;50.720;6.912;2024-01-16T09:13:08;99492.97;;;2.96;91.33
17072;BME280;7731;50.720;6.912;2024-01-16T09:15:41;99488.81;;;4.31;81.19
17072;BME280;7731;50.720;6.912;2024-01-16T09:18:15;99492.72;;;4.88;69.11
17072;BME280;7731;50.720;6.912;2024-01-16T09:20:48;99495.72;;;4.02;68.41
17072;BME280;7731;50.720;6.912;2024-01-16T09:23:21;99503.19;;;3.25;74.97
17072;BME280;7731;50.720;6.912;2024-01-16T09:25:51;99509.88;;;2.97;72.44
17072;BME280;7731;50.720;6.912;2024-01-16T09:28:22;99512.91;;;2.49;76.63
17072;BME280;7731;50.720;6.912;2024-01-16T09:30:52;99511.75;;;3.50;75.72
17072;BME280;7731;50.720;6.912;2024-01-16T09:33:28;99507.94;;;4.66;69.81
17072;BME280;7731;50.720;6.912;2024-01-16T09:36:01;99503.09;;;3.28;69.50
17072;BME280;7731;50.720;6.912;2024-01-16T09:38:32;99503.63;;;3.09;73.83
17072;BME280;7731;50.720;6.912;2024-01-16T09:41:03;99502.19;;;3.30;71.51
17072;BME280;7731;50.720;6.912;2024-01-16T09:43:34;99502.22;;;2.99;71.92
17072;BME280;7731;50.720;6.912;2024-01-16T09:46:16;99511.38;;;2.42;73.95
17072;BME280;7731;50.720;6.912;2024-01-16T09:48:51;99500.25;;;2.79;72.95
17072;BME280;7731;50.720;6.912;2024-01-16T09:51:24;99491.66;;;3.96;67.58
17072;BME280;7731;50.720;6.912;2024-01-16T09:53:57;99494.47;;;4.14;64.92
17072;BME280;7731;50.720;6.912;2024-01-16T09:56:41;99489.66;;;4.31;64.31
17072;BME280;7731;50.720;6.912;2024-01-16T09:59:17;99486.91;;;4.37;63.48
17072;BME280;7731;50.720;6.912;2024-01-16T10:01:53;99487.06;;;3.54;68.28
17072;BME280;7731;50.720;6.912;2024-01-16T10:04:28;99491.81;;;3.08;73.99
17072;BME280;7731;50.720;6.912;2024-01-16T10:07:04;99480.34;;;3.80;70.05
17072;BME280;7731;50.720;6.912;2024-01-16T10:09:35;99481.59;;;3.66;70.30
17072;BME280;7731;50.720;6.912;2024-01-16T10:12:08;99478.38;;;3.61;70.32
17072;BME280;7731;50.720;6.912;2024-01-16T10:14:49;99478.81;;;3.19;72.85
17072;BME280;7731;50.720;6.912;2024-01-16T10:17:36;99485.88;;;2.15;77.46
17072;BME280;7731;50.720;6.912;2024-01-16T10:20:33;99482.31;;;2.55;76.77
17072;BME280;7731;50.720;6.912;2024-01-16T10:23:10;99475.75;;;2.15;78.72
17072;BME280;7731;50.720;6.912;2024-01-16T10:25:40;99469.22;;;1.70;82.29
17072;BME280;7731;50.720;6.912;2024-01-16T10:28:23;99460.72;;;1.73;87.21
17072;BME280;7731;50.720;6.912;2024-01-16T10:31:02;99462.94;;;2.21;83.12
17072;BME280;7731;50.720;6.912;2024-01-16T10:33:37;99458.75;;;1.84;88.25
17072;BME280;7731;50.720;6.912;2024-01-16T10:36:12;99453.97;;;2.08;85.05
17072;BME280;7731;50.720;6.912;2024-01-16T10:38:47;99449.34;;;2.85;81.99
17072;BME280;7731;50.720;6.912;2024-01-16T10:41:26;99450.66;;;2.98;77.93
17072;BME280;7731;50.720;6.912;2024-01-16T10:44:04;99442.59;;;2.84;79.47
17072;BME280;7731;50.720;6.912;2024-01-16T10:46:37;99440.28;;;3.06;77.44
17072;BME280;7731;50.720;6.912;2024-01-16T10:49:10;99434.88;;;3.17;79.40
17072;BME280;7731;50.720;6.912;2024-01-16T10:51:44;99438.19;;;2.29;79.58
17072;BME280;7731;50.720;6.912;2024-01-16T10:54:17;99421.94;;;2.96;80.57
17072;BME280;7731;50.720;6.912;2024-01-16T10:56:50;99428.44;;;2.77;79.10
17072;BME280;7731;50.720;6.912;2024-01-16T10:59:34;99431.63;;;2.83;76.48
17072;BME280;7731;50.720;6.912;2024-01-16T11:02:12;99430.41;;;2.67;78.36
17072;BME280;7731;50.720;6.912;2024-01-16T11:04:46;99423.25;;;2.81;75.53
17072;BME280;7731;50.720;6.912;2024-01-16T11:07:23;99418.13;;;3.39;75.19
17072;BME280;7731;50.720;6.912;2024-01-16T11:09:58;99417.06;;;3.97;71.91
17072;BME280;7731;50.720;6.912;2024-01-16T11:12:35;99412.13;;;5.11;68.31
17072;BME280;7731;50.720;6.912;2024-01-16T11:15:09;99418.47;;;4.55;64.11
17072;BME280;7731;50.720;6.912;2024-01-16T11:17:44;99418.28;;;3.60;67.72
17072;BME280;7731;50.720;6.912;2024-01-16T11:20:29;99411.88;;;4.00;66.19
17072;BME280;7731;50.720;6.912;2024-01-16T11:23:30;99414.94;;;4.10;68.16
17072;BME280;7731;50.720;6.912;2024-01-16T11:26:28;99414.38;;;2.66;69.75
17072;BME280;7731;50.720;6.912;2024-01-16T11:29:01;99411.69;;;2.99;71.11
17072;BME280;7731;50.720;6.912;2024-01-16T11:32:33;99410.38;;;2.58;73.99
17072;BME280;7731;50.720;6.912;2024-01-16T11:35:07;99411.44;;;2.80;72.88
17072;BME280;7731;50.720;6.912;2024-01-16T11:37:41;99416.63;;;3.04;74.58
17072;BME280;7731;50.720;6.912;2024-01-16T11:40:25;99424.25;;;3.32;70.69
17072;BME280;7731;50.720;6.912;2024-01-16T11:46:08;99418.06;;;3.13;71.40
17072;BME280;7731;50.720;6.912;2024-01-16T11:48:39;99428.06;;;1.96;77.15
17072;BME280;7731;50.720;6.912;2024-01-16T11:51:24;99431.16;;;2.08;80.77
17072;BME280;7731;50.720;6.912;2024-01-16T11:53:55;99418.16;;;3.38;74.07
17072;BME280;7731;50.720;6.912;2024-01-16T12:00:19;99413.50;;;3.51;65.54
17072;BME280;7731;50.720;6.912;2024-01-16T12:02:52;99418.69;;;2.63;70.38
17072;BME280;7731;50.720;6.912;2024-01-16T12:05:23;99400.00;;;3.75;70.08
17072;BME280;7731;50.720;6.912;2024-01-16T12:07:54;99392.84;;;4.12;67.08
17072;BME280;7731;50.720;6.912;2024-01-16T12:10:25;99386.78;;;3.91;68.75
17072;BME280;7731;50.720;6.912;2024-01-16T12:12:59;99384.28;;;4.15;65.98
17072;BME280;7731;50.720;6.912;2024-01-16T12:15:35;99379.63;;;3.77;65.45
17072;BME280;7731;50.720;6.912;2024-01-16T12:18:18;99375.19;;;4.56;63.11
17072;BME280;7731;50.720;6.912;2024-01-16T12:21:08;99376.09;;;4.54;60.97
17072;BME280;7731;50.720;6.912;2024-01-16T12:23:41;99380.94;;;4.38;63.82
17072;BME280;7731;50.720;6.912;2024-01-16T12:26:35;99378.72;;;4.52;62.62
17072;BME280;7731;50.720;6.912;2024-01-16T12:29:08;99374.88;;;4.40;62.74
17072;BME280;7731;50.720;6.912;2024-01-16T12:31:39;99374.78;;;4.43;63.13
17072;BME280;7731;50.720;6.912;2024-01-16T12:34:10;99362.72;;;4.01;63.50
17072;BME280;7731;50.720;6.912;2024-01-16T12:36:43;99357.66;;;4.49;63.55
17072;BME280;7731;50.720;6.912;2024-01-16T12:39:14;99355.81;;;4.74;63.14
17072;BME280;7731;50.720;6.912;2024-01-16T12:41:46;99364.22;;;3.82;64.56
17072;BME280;7731;50.720;6.912;2024-01-16T12:44:27;99360.56;;;3.90;63.84
17072;BME280;7731;50.720;6.912;2024-01-16T12:47:00;99361.69;;;3.56;65.64
17072;BME280;7731;50.720;6.912;2024-01-16T12:49:41;99352.75;;;2.91;67.60
17072;BME280;7731;50.720;6.912;2024-01-16T12:52:18;99345.81;;;2.96;67.24
17072;BME280;7731;50.720;6.912;2024-01-16T12:54:59;99332.53;;;3.16;67.15
17072;BME280;7731;50.720;6.912;2024-01-16T12:57:32;99336.09;;;3.11;69.05
17072;BME280;7731;50.720;6.912;2024-01-16T13:00:22;99341.34;;;2.48;71.55
17072;BME280;7731;50.720;6.912;2024-01-16T13:02:53;99334.50;;;2.80;72.07
17072;BME280;7731;50.720;6.912;2024-01-16T13:05:26;99328.69;;;2.76;70.19
17072;BME280;7731;50.720;6.912;2024-01-16T13:08:00;99328.81;;;2.43;72.36
17072;BME280;7731;50.720;6.912;2024-01-16T13:10:32;99329.56;;;1.86;72.69
17072;BME280;7731;50.720;6.912;2024-01-16T13:13:14;99324.25;;;1.95;72.96
17072;BME280;7731;50.720;6.912;2024-01-16T13:15:47;99316.41;;;2.34;71.70
17072;BME280;7731;50.720;6.912;2024-01-16T13:18:30;99328.19;;;1.74;74.13
17072;BME280;7731;50.720;6.912;2024-01-16T13:21:01;99317.25;;;1.72;74.76
17072;BME280;7731;50.720;6.912;2024-01-16T13:23:35;99305.31;;;2.08;74.88
17072;BME280;7731;50.720;6.912;2024-01-16T13:26:08;99310.31;;;1.80;72.67
17072;BME280;7731;50.720;6.912;2024-01-16T13:29:02;99305.44;;;1.39;73.78
17072;BME280;7731;50.720;6.912;2024-01-16T13:31:38;99311.28;;;2.06;73.51
17072;BME280;7731;50.720;6.912;2024-01-16T13:34:08;99309.47;;;2.11;71.62
17072;BME280;7731;50.720;6.912;2024-01-16T13:36:42;99310.09;;;2.18;71.63
17072;BME280;7731;50.720;6.912;2024-01-16T13:39:32;99306.91;;;2.41;69.76
17072;BME280;7731;50.720;6.912;2024-01-16T13:42:06;99304.13;;;2.20;70.92
17072;BME280;7731;50.720;6.912;2024-01-16T13:44:38;99310.81;;;1.62;70.78
17072;BME280;7731;50.720;6.912;2024-01-16T13:47:19;99302.16;;;2.00;71.36
17072;BME280;7731;50.720;6.912;2024-01-16T13:49:49;99304.91;;;1.92;71.87
17072;BME280;7731;50.720;6.912;2024-01-16T13:52:19;99307.94;;;1.74;74.47
17072;BME280;7731;50.720;6.912;2024-01-16T13:54:54;99307.06;;;1.75;74.45
17072;BME280;7731;50.720;6.912;2024-01-16T13:57:24;99302.31;;;1.63;71.69